createdAt,value
2018-04-13T22:18:32.306Z,97741.72
2018-04-13T22:21:02.254Z,97740.18
2018-04-13T22:23:31.736Z,97739.52
2018-04-13T22:26:01.003Z,97737.73
2018-04-13T22:28:30.925Z,97732.58
2018-04-13T22:31:00.230Z,97735.76
2018-04-13T22:33:29.829Z,97737.73
2018-04-13T22:36:01.191Z,97735.69
2018-04-13T22:38:30.679Z,97736.67
2018-04-13T22:40:59.818Z,97735.69
2018-04-13T22:43:29.259Z,97735.46
2018-04-13T22:45:59.363Z,97742.23
2018-04-13T22:48:29.287Z,97738.58
2018-04-13T22:50:58.610Z,97742.73
2018-04-13T22:53:28.289Z,97747.97
2018-04-13T22:55:57.625Z,97746.25
2018-04-13T22:58:27.773Z,97750.67
2018-04-13T23:00:57.682Z,97760.00
2018-04-13T23:03:26.907Z,97752.21
2018-04-13T23:05:56.782Z,97761.13
2018-04-13T23:08:26.252Z,97763.73
2018-04-13T23:10:55.652Z,97765.70
2018-04-13T23:13:27.866Z,97753.13
2018-04-13T23:15:57.443Z,97751.73
2018-04-13T23:18:26.767Z,97746.84
2018-04-13T23:20:56.574Z,97746.58
2018-04-13T23:23:26.454Z,97743.44
2018-04-13T23:25:55.918Z,97751.70
2018-04-13T23:28:24.688Z,97753.16
2018-04-13T23:30:56.223Z,97754.66
2018-04-13T23:33:26.890Z,97749.36
2018-04-13T23:35:56.661Z,97755.82
2018-04-13T23:38:26.274Z,97762.28
2018-04-13T23:40:55.734Z,97758.23
2018-04-13T23:43:25.751Z,97757.31
2018-04-13T23:45:57.926Z,97760.42
2018-04-13T23:48:28.013Z,97762.72
2018-04-13T23:51:01.671Z,97757.05
2018-04-13T23:53:31.780Z,97755.59
2018-04-13T23:56:01.708Z,97755.38
2018-04-13T23:58:30.930Z,97759.05
